Terminal Aerodrome Forecast
Issued by NWS

Home | Current Version | Previous Version | Text Only | Print | Product List | Glossary On
Versions: 1 2 3 4 5 6 7 8 9 10 11 12 13
279
FTUS45 KRIW 290530
TAFCOD
TAF
KCOD 290530Z 2906/3006 VRB05KT P6SM SKC
     FM291900 15007KT P6SM SCT080
     FM300300 21006KT P6SM SCT100
      AMD LTD TO CLD VIS AND WIND=

USA.gov is the U.S. government's official web portal to all federal, state and local government web resources and services.